createdAt,value
2017-02-21T00:00:08.591Z,5.21
2017-02-21T00:00:52.625Z,5.17
2017-02-21T00:01:37.724Z,5.18
2017-02-21T00:03:42.216Z,5.25
2017-02-21T00:04:22.779Z,5.15
2017-02-21T00:05:04.754Z,5.23
2017-02-21T00:05:46.072Z,5.3
2017-02-21T00:06:30.279Z,5.28
2017-02-21T00:07:13.457Z,5.33
2017-02-21T00:07:57.744Z,5.23
2017-02-21T00:08:42.734Z,5.29
2017-02-21T00:09:24.985Z,5.29
2017-02-21T00:10:14.251Z,5.39
2017-02-21T00:10:56.640Z,5.28
2017-02-21T00:11:37.929Z,5.26
2017-02-21T00:12:22.733Z,5.3
2017-02-21T00:13:06.748Z,5.3
2017-02-21T00:13:55.926Z,5.25
2017-02-21T00:14:37.474Z,5.29
2017-02-21T00:15:27.253Z,5.25
2017-02-21T00:16:10.509Z,5.25
2017-02-21T00:16:55.352Z,5.32
2017-02-21T00:17:52.315Z,5.28
2017-02-21T00:18:37.437Z,5.36
2017-02-21T00:19:21.255Z,5.32
2017-02-21T00:20:03.378Z,5.32
2017-02-21T00:21:53.123Z,5.33
2017-02-21T00:22:34.639Z,5.23
2017-02-21T00:23:19.812Z,5.26
2017-02-21T00:24:03.731Z,5.36
2017-02-21T00:24:45.827Z,5.26
2017-02-21T00:28:20.790Z,5.3
2017-02-21T00:29:06.337Z,5.26
2017-02-21T00:29:52.350Z,5.29
2017-02-21T00:30:42.316Z,5.35
2017-02-21T00:31:30.322Z,5.32
2017-02-21T00:33:47.081Z,5.44
2017-02-21T00:34:28.077Z,5.47
2017-02-21T00:36:43.896Z,5.51
2017-02-21T00:37:26.434Z,5.46
2017-02-21T00:38:10.293Z,5.56
2017-02-21T00:38:52.457Z,5.43
2017-02-21T00:39:34.366Z,5.48
2017-02-21T00:40:16.486Z,5.51
2017-02-21T00:41:01.288Z,5.61
2017-02-21T00:41:43.293Z,5.54
2017-02-21T00:42:28.270Z,5.64
2017-02-21T00:43:13.383Z,5.64
2017-02-21T00:43:55.257Z,5.64
2017-02-21T00:44:36.482Z,5.65
2017-02-21T00:45:21.391Z,5.61
2017-02-21T00:47:17.078Z,5.66
2017-02-21T00:47:59.355Z,5.65
2017-02-21T00:48:49.329Z,5.62
2017-02-21T00:50:38.723Z,5.59
2017-02-21T00:51:23.560Z,5.65
2017-02-21T00:53:46.642Z,5.76
2017-02-21T00:54:27.383Z,5.73
2017-02-21T00:55:13.133Z,5.75
2017-02-21T00:56:00.175Z,5.66
2017-02-21T00:56:43.505Z,5.73
2017-02-21T00:57:31.132Z,5.65
2017-02-21T00:58:12.417Z,5.76
2017-02-21T00:58:56.639Z,5.72
2017-02-21T00:59:41.674Z,5.75
2017-02-21T01:00:25.058Z,5.79
2017-02-21T01:01:07.229Z,5.72
2017-02-21T01:08:20.798Z,5.84
2017-02-21T01:09:06.922Z,5.83
2017-02-21T01:09:50.849Z,5.87
2017-02-21T01:10:37.685Z,5.89
2017-02-21T01:11:19.753Z,5.84
2017-02-21T01:13:28.038Z,5.89
2017-02-21T01:14:13.954Z,5.9
2017-02-21T01:15:03.915Z,5.84
2017-02-21T01:15:52.036Z,5.87
2017-02-21T01:16:35.862Z,5.83
2017-02-21T01:17:17.053Z,5.91
2017-02-21T01:18:00.953Z,5.87
2017-02-21T01:40:08.976Z,6.51
2017-02-21T01:43:34.153Z,6.36
2017-02-21T01:47:08.854Z,6.33
2017-02-21T01:52:44.942Z,6.28
2017-02-21T01:53:30.293Z,6.35
2017-02-21T01:56:43.531Z,6.3
2017-02-21T01:57:29.247Z,6.22
2017-02-21T01:58:12.256Z,6.27
2017-02-21T01:58:56.395Z,6.27
2017-02-21T01:59:38.511Z,6.2
2017-02-21T02:00:21.391Z,6.22
2017-02-21T02:01:02.465Z,6.17
2017-02-21T02:03:47.476Z,6.24
2017-02-21T02:04:32.702Z,6.22
2017-02-21T02:07:52.593Z,6.19
2017-02-21T02:09:42.913Z,5.99
2017-02-21T02:10:26.750Z,6.07
2017-02-21T02:12:05.550Z,6.02
2017-02-21T02:12:50.887Z,6.02
2017-02-21T02:13:37.280Z,6.11
2017-02-21T02:14:30.220Z,6.05
2017-02-21T02:15:30.206Z,6.04
2017-02-21T02:16:21.206Z,6.11
2017-02-21T02:17:06.210Z,6.05
2017-02-21T02:17:53.199Z,6.01
2017-02-21T02:18:33.690Z,6.04
2017-02-21T02:19:17.969Z,5.99
2017-02-21T02:20:01.365Z,6.11
2017-02-21T02:20:44.340Z,6.04
2017-02-21T02:21:27.378Z,6.01
2017-02-21T02:22:16.189Z,6.02
2017-02-21T02:23:10.276Z,5.89
2017-02-21T02:23:52.435Z,6.01
2017-02-21T02:24:32.922Z,5.87
2017-02-21T02:25:18.791Z,6.04
2017-02-21T02:26:01.786Z,5.98
2017-02-21T02:26:49.730Z,6.08
2017-02-21T02:27:32.953Z,5.89
2017-02-21T02:28:19.855Z,6.01
2017-02-21T02:29:08.703Z,6.07
2017-02-21T02:29:56.718Z,6.04
2017-02-21T02:30:45.849Z,6.05
2017-02-21T02:31:26.955Z,6.01
2017-02-21T02:33:44.852Z,5.98
2017-02-21T02:34:28.672Z,6.02
2017-02-21T02:35:15.449Z,5.94
2017-02-21T02:36:05.452Z,6.02
2017-02-21T02:36:55.553Z,6.09
2017-02-21T02:37:37.734Z,6.07
2017-02-21T02:38:33.637Z,6.05
2017-02-21T02:39:14.941Z,5.98
2017-02-21T02:39:56.036Z,6.09
2017-02-21T02:40:42.228Z,6.05
2017-02-21T02:41:25.124Z,6.01
2017-02-21T02:45:15.631Z,5.89
2017-02-21T02:46:01.051Z,5.9
2017-02-21T02:46:45.173Z,5.9
2017-02-21T02:47:32.178Z,5.93
2017-02-21T02:48:17.287Z,5.97
2017-02-21T02:49:02.218Z,5.87
2017-02-21T02:49:44.251Z,5.94
2017-02-21T02:50:28.158Z,5.84
2017-02-21T02:51:12.280Z,5.87
2017-02-21T02:51:55.172Z,5.91
2017-02-21T02:52:40.259Z,5.87
2017-02-21T02:53:35.173Z,5.83
2017-02-21T02:54:19.178Z,5.86
2017-02-21T02:55:08.159Z,5.8
2017-02-21T02:55:51.247Z,5.89
2017-02-21T02:59:12.893Z,5.87
2017-02-21T03:00:51.896Z,5.9
2017-02-21T03:04:14.720Z,5.97
2017-02-21T03:04:59.742Z,5.93
2017-02-21T03:06:56.870Z,5.98
2017-02-21T03:08:48.627Z,6.02
2017-02-21T03:09:31.718Z,6.08
2017-02-21T03:10:14.627Z,6.05
2017-02-21T03:10:59.579Z,6.02
2017-02-21T03:11:47.605Z,6.07
2017-02-21T03:12:33.491Z,6.08
2017-02-21T03:13:16.494Z,6.05
2017-02-21T03:14:01.523Z,6.01
2017-02-21T03:16:03.552Z,5.98
2017-02-21T03:18:26.595Z,5.98
2017-02-21T03:19:31.185Z,5.99
2017-02-21T03:20:30.753Z,5.9
2017-02-21T03:21:16.831Z,5.97
2017-02-21T03:21:58.718Z,5.89
2017-02-21T03:22:44.100Z,5.9
2017-02-21T03:23:27.347Z,5.94
2017-02-21T03:24:10.235Z,5.9
2017-02-21T03:24:52.235Z,5.93
2017-02-21T03:25:44.221Z,6.04
2017-02-21T03:26:29.217Z,5.9
2017-02-21T03:27:19.218Z,5.97
2017-02-21T03:31:24.428Z,5.9
2017-02-21T03:32:08.076Z,5.91
2017-02-21T03:32:56.969Z,5.89
2017-02-21T03:33:47.977Z,5.9
2017-02-21T03:34:31.976Z,5.84
2017-02-21T03:35:18.999Z,5.84
2017-02-21T03:36:01.224Z,5.75
2017-02-21T03:36:46.167Z,5.82
2017-02-21T03:37:31.981Z,5.8
2017-02-21T03:38:14.149Z,5.83
2017-02-21T03:40:03.991Z,5.66
2017-02-21T03:40:46.037Z,5.79
2017-02-21T03:41:33.374Z,5.68
2017-02-21T03:42:20.379Z,5.71
2017-02-21T03:43:08.442Z,5.59
2017-02-21T03:43:53.347Z,5.68
2017-02-21T03:44:34.443Z,5.59
2017-02-21T03:45:33.350Z,5.62
2017-02-21T03:46:16.350Z,5.64
2017-02-21T03:47:06.372Z,5.57
2017-02-21T03:47:49.602Z,5.62
2017-02-21T03:48:31.922Z,5.62
2017-02-21T03:49:16.050Z,5.61
2017-02-21T03:51:47.545Z,5.56
2017-02-21T03:52:38.134Z,5.57
2017-02-21T03:53:23.780Z,5.57
2017-02-21T03:54:18.429Z,5.51
2017-02-21T03:55:01.518Z,5.48
2017-02-21T03:55:50.438Z,5.61
2017-02-21T03:58:49.555Z,5.65
2017-02-21T04:00:29.565Z,5.61
2017-02-21T04:02:19.262Z,5.64
2017-02-21T04:04:21.596Z,5.62
2017-02-21T04:06:24.090Z,5.5
2017-02-21T04:07:10.015Z,5.59
2017-02-21T04:10:40.732Z,5.56
2017-02-21T04:11:26.648Z,5.38
2017-02-21T04:12:15.290Z,5.41
2017-02-21T04:13:02.946Z,5.46
2017-02-21T04:13:42.965Z,5.33
2017-02-21T04:14:24.210Z,5.21
2017-02-21T04:15:05.619Z,5.25
2017-02-21T04:15:46.865Z,5.23
2017-02-21T04:16:28.144Z,5.17
2017-02-21T04:17:08.612Z,5.18
2017-02-21T04:17:49.057Z,5.17
2017-02-21T04:18:29.533Z,5.08
2017-02-21T04:19:10.017Z,5
2017-02-21T04:19:50.502Z,5.04
2017-02-21T04:20:30.977Z,5.15
2017-02-21T04:21:11.420Z,5.11
2017-02-21T04:21:51.902Z,5.14
2017-02-21T04:22:32.426Z,5.07
2017-02-21T04:23:12.869Z,5.08
2017-02-21T04:23:53.475Z,5.14
2017-02-21T04:24:33.966Z,5.11
2017-02-21T04:25:15.024Z,5.1
2017-02-21T04:25:55.512Z,5.04
2017-02-21T04:26:37.676Z,5.04
2017-02-21T04:27:18.157Z,5.07
2017-02-21T04:27:58.662Z,5.12
2017-02-21T04:28:39.154Z,5.04
2017-02-21T04:29:19.625Z,5.04
2017-02-21T04:30:00.748Z,5.12
2017-02-21T04:30:41.234Z,5.12
2017-02-21T04:31:23.379Z,5.14
2017-02-21T04:32:05.749Z,5.14
2017-02-21T04:32:46.722Z,5.14
2017-02-21T04:33:27.905Z,5.12
2017-02-21T04:34:08.364Z,5.11
2017-02-21T04:34:49.715Z,5.12
2017-02-21T04:35:32.772Z,5.17
2017-02-21T04:36:13.307Z,5.18
2017-02-21T04:36:55.132Z,5.14
2017-02-21T04:37:36.368Z,5.15
2017-02-21T04:38:18.305Z,5.18
2017-02-21T04:38:59.384Z,5.23
2017-02-21T04:39:39.896Z,5.15
2017-02-21T04:40:24.667Z,5.15
2017-02-21T04:41:08.621Z,5.21
2017-02-21T04:41:50.819Z,5.17
2017-02-21T04:42:32.790Z,5.2
2017-02-21T04:43:24.706Z,5.14
2017-02-21T04:44:06.799Z,5.21
2017-02-21T04:44:50.027Z,5.21
2017-02-21T04:45:46.124Z,5.17
2017-02-21T04:46:30.186Z,5.21
2017-02-21T04:47:14.144Z,5.17
2017-02-21T04:48:02.137Z,5.17
2017-02-21T04:48:46.152Z,5.15
2017-02-21T04:49:36.112Z,5.17
2017-02-21T04:50:19.113Z,5.25
2017-02-21T04:51:58.140Z,5.25
2017-02-21T04:52:43.727Z,5.26
2017-02-21T04:54:21.825Z,5.33
2017-02-21T04:55:07.411Z,5.28
2017-02-21T04:55:54.992Z,5.25
2017-02-21T04:56:40.955Z,5.33
2017-02-21T04:57:26.959Z,5.33
2017-02-21T04:58:09.939Z,5.26
2017-02-21T04:58:51.217Z,5.3
2017-02-21T04:59:34.509Z,5.32
2017-02-21T05:00:15.452Z,5.28
2017-02-21T05:01:04.568Z,5.29
2017-02-21T05:01:45.938Z,5.33
2017-02-21T05:02:30.953Z,5.3
2017-02-21T05:03:16.960Z,5.33
2017-02-21T05:04:00.027Z,5.44
2017-02-21T05:04:43.047Z,5.41
2017-02-21T05:05:24.129Z,5.39
2017-02-21T05:06:07.470Z,5.44
2017-02-21T05:06:55.458Z,5.44
2017-02-21T05:07:40.699Z,5.39
2017-02-21T05:09:29.902Z,5.36
2017-02-21T05:10:15.700Z,5.39
2017-02-21T05:11:01.348Z,5.39
2017-02-21T05:11:42.334Z,5.36
2017-02-21T05:12:26.324Z,5.39
2017-02-21T05:13:06.801Z,5.39
2017-02-21T05:13:50.019Z,5.43
2017-02-21T05:14:30.520Z,5.47
2017-02-21T05:15:11.008Z,5.41
2017-02-21T05:15:51.490Z,5.47
2017-02-21T05:16:32.005Z,5.35
2017-02-21T05:17:12.459Z,5.38
2017-02-21T05:17:52.958Z,5.39
2017-02-21T05:18:34.930Z,5.41
2017-02-21T05:19:15.404Z,5.43
2017-02-21T05:19:55.930Z,5.47
2017-02-21T05:20:36.415Z,5.47
2017-02-21T05:21:16.869Z,5.51
2017-02-21T05:22:07.969Z,5.47
2017-02-21T05:22:54.861Z,5.51
2017-02-21T05:23:37.868Z,5.53
2017-02-21T05:24:22.986Z,5.44
2017-02-21T05:26:39.921Z,5.54
2017-02-21T05:27:25.469Z,5.54
2017-02-21T05:31:18.900Z,5.56
2017-02-21T05:32:05.180Z,5.56
2017-02-21T05:34:25.483Z,5.57
2017-02-21T05:35:17.981Z,5.53
2017-02-21T05:36:05.948Z,5.53
2017-02-21T05:39:21.440Z,5.48
2017-02-21T05:40:09.674Z,5.54
2017-02-21T05:40:58.157Z,5.53
2017-02-21T05:41:46.563Z,5.56
2017-02-21T05:42:35.210Z,5.51
2017-02-21T05:43:16.968Z,5.54
2017-02-21T05:44:00.050Z,5.51
2017-02-21T05:44:41.366Z,5.48
2017-02-21T05:45:26.489Z,5.48
2017-02-21T05:46:11.461Z,5.53
2017-02-21T05:46:54.687Z,5.57
2017-02-21T05:47:36.973Z,5.41
2017-02-21T05:48:22.060Z,5.39
2017-02-21T05:49:03.063Z,5.44
2017-02-21T05:49:47.036Z,5.47
2017-02-21T05:50:30.060Z,5.36
2017-02-21T05:51:16.964Z,5.39
2017-02-21T05:52:09.980Z,5.5
2017-02-21T05:52:55.212Z,5.39
2017-02-21T06:09:23.098Z,5.04
2017-02-21T06:11:13.870Z,5.08
2017-02-21T06:12:00.317Z,5.11
2017-02-21T06:14:04.320Z,5.02
2017-02-21T06:14:51.415Z,4.94
2017-02-21T06:15:38.726Z,4.99
2017-02-21T06:16:26.920Z,4.97
2017-02-21T06:17:08.837Z,4.97
2017-02-21T06:17:55.824Z,4.87
2017-02-21T06:18:39.028Z,4.99
2017-02-21T06:19:25.839Z,4.86
2017-02-21T06:20:09.852Z,4.94
2017-02-21T06:20:52.856Z,4.9
2017-02-21T06:21:37.928Z,4.97
2017-02-21T06:22:20.834Z,4.94
2017-02-21T06:24:39.679Z,4.92
2017-02-21T06:25:20.289Z,4.94
2017-02-21T06:26:01.593Z,4.86
2017-02-21T06:26:42.674Z,4.87
2017-02-21T06:27:24.972Z,4.89
2017-02-21T06:28:13.922Z,4.86
2017-02-21T06:28:59.893Z,4.84
2017-02-21T06:29:52.947Z,4.86
2017-02-21T06:30:39.901Z,4.84
2017-02-21T06:35:27.037Z,4.77
2017-02-21T06:37:44.519Z,4.77
2017-02-21T06:38:28.305Z,4.8
2017-02-21T06:39:16.329Z,4.75
2017-02-21T06:40:57.087Z,4.58
2017-02-21T06:42:55.305Z,4.59
2017-02-21T06:43:41.009Z,4.7
2017-02-21T06:44:29.693Z,4.7
2017-02-21T06:45:17.959Z,4.67
2017-02-21T06:46:06.453Z,4.77
2017-02-21T06:46:54.919Z,4.71
2017-02-21T06:47:37.130Z,4.67
2017-02-21T06:48:24.871Z,4.66
2017-02-21T06:49:14.104Z,4.6
2017-02-21T06:49:58.839Z,4.7
2017-02-21T06:51:06.850Z,4.63
2017-02-21T06:51:52.873Z,4.62
2017-02-21T06:52:36.395Z,4.66
2017-02-21T06:53:16.852Z,4.62
2017-02-21T06:53:57.302Z,4.56
2017-02-21T06:54:37.806Z,4.63
2017-02-21T06:55:18.316Z,4.59
2017-02-21T06:55:58.761Z,4.59
2017-02-21T06:56:39.251Z,4.58
2017-02-21T06:57:19.710Z,4.62
2017-02-21T06:58:00.213Z,4.56
2017-02-21T06:58:40.689Z,4.48
2017-02-21T06:59:21.197Z,4.5
2017-02-21T07:00:02.402Z,4.53
2017-02-21T07:00:42.865Z,4.5
2017-02-21T07:01:23.394Z,4.5
2017-02-21T07:02:03.883Z,4.53
2017-02-21T07:02:44.350Z,4.62
2017-02-21T07:03:24.829Z,4.56
2017-02-21T07:04:05.300Z,4.53
2017-02-21T07:04:45.791Z,4.52
2017-02-21T07:05:26.269Z,4.5
2017-02-21T07:06:06.746Z,4.48
2017-02-21T07:06:47.242Z,4.56
2017-02-21T07:07:27.685Z,4.56
2017-02-21T07:08:08.243Z,4.48
2017-02-21T07:08:48.713Z,4.58
2017-02-21T07:09:29.205Z,4.56
2017-02-21T07:10:09.689Z,4.49
2017-02-21T07:10:50.162Z,4.59
2017-02-21T07:11:30.737Z,4.55
2017-02-21T07:12:11.147Z,4.53
2017-02-21T07:12:51.610Z,4.53
2017-02-21T07:13:32.097Z,4.58
2017-02-21T07:14:12.599Z,4.56
2017-02-21T07:14:53.111Z,4.6
2017-02-21T07:15:33.588Z,4.53
2017-02-21T07:16:15.555Z,4.62
2017-02-21T07:16:56.036Z,4.63
2017-02-21T07:17:36.505Z,4.59
2017-02-21T07:18:16.940Z,4.58
2017-02-21T07:18:57.466Z,4.6
2017-02-21T07:19:37.937Z,4.56
2017-02-21T07:20:18.432Z,4.6
2017-02-21T07:20:58.879Z,4.56
2017-02-21T07:21:39.384Z,4.6
2017-02-21T07:22:19.888Z,4.6
2017-02-21T07:23:00.381Z,4.6
2017-02-21T07:23:40.836Z,4.59
2017-02-21T07:24:21.396Z,4.74
2017-02-21T07:25:01.795Z,4.63
2017-02-21T07:25:42.295Z,4.62
2017-02-21T07:26:22.759Z,4.66
2017-02-21T07:27:03.222Z,4.59
2017-02-21T07:27:43.754Z,4.67
2017-02-21T07:28:24.211Z,4.74
2017-02-21T07:29:04.668Z,4.84
2017-02-21T07:29:46.455Z,4.84
2017-02-21T07:30:26.947Z,4.8
2017-02-21T07:31:09.842Z,4.9
2017-02-21T07:34:57.337Z,4.94
2017-02-21T07:35:40.147Z,4.87
2017-02-21T07:36:23.150Z,4.99
2017-02-21T07:37:05.258Z,4.96
2017-02-21T07:37:47.294Z,4.96
2017-02-21T07:38:27.784Z,5.02
2017-02-21T07:39:08.256Z,5.08
2017-02-21T07:39:48.733Z,5.05
2017-02-21T07:40:29.231Z,5.05
2017-02-21T07:41:10.646Z,5.05
2017-02-21T07:41:51.121Z,5.11
2017-02-21T07:42:31.591Z,5.14
2017-02-21T07:43:15.677Z,5.15
2017-02-21T07:43:58.646Z,5.18
2017-02-21T07:44:41.665Z,5.14
2017-02-21T07:45:23.044Z,5.21
2017-02-21T07:46:06.293Z,5.23
2017-02-21T07:46:46.759Z,5.18
2017-02-21T07:47:27.254Z,5.18
2017-02-21T07:48:08.848Z,5.26
2017-02-21T07:48:50.065Z,5.3
2017-02-21T07:49:31.169Z,5.25
2017-02-21T07:50:11.661Z,5.28
2017-02-21T07:50:52.116Z,5.32
2017-02-21T07:51:32.617Z,5.21
2017-02-21T07:52:13.155Z,5.32
2017-02-21T07:52:55.211Z,5.28
2017-02-21T07:53:37.222Z,5.3
2017-02-21T07:54:17.714Z,5.41
2017-02-21T07:54:58.227Z,5.46
2017-02-21T07:55:38.671Z,5.38
2017-02-21T07:56:19.166Z,5.39
2017-02-21T07:56:59.682Z,5.39
2017-02-21T07:57:40.135Z,5.39
2017-02-21T07:58:20.738Z,5.48
2017-02-21T07:59:02.181Z,5.38
2017-02-21T07:59:42.633Z,5.38
2017-02-21T08:00:23.098Z,5.47
2017-02-21T08:01:03.625Z,5.39
2017-02-21T08:01:44.226Z,5.44
2017-02-21T08:02:24.675Z,5.39
2017-02-21T08:03:05.135Z,5.44
2017-02-21T08:03:45.649Z,5.53
2017-02-21T08:04:26.218Z,5.53
2017-02-21T08:05:06.746Z,5.47
2017-02-21T08:05:47.253Z,5.56
2017-02-21T08:06:27.705Z,5.43
2017-02-21T08:07:08.205Z,5.5
2017-02-21T08:07:48.704Z,5.48
2017-02-21T08:08:29.173Z,5.47
2017-02-21T08:09:09.670Z,5.44
2017-02-21T08:09:50.138Z,5.56
2017-02-21T08:10:30.616Z,5.47
2017-02-21T08:11:11.072Z,5.57
2017-02-21T08:11:51.572Z,5.5
2017-02-21T08:12:32.072Z,5.54
2017-02-21T08:13:12.572Z,5.47
2017-02-21T08:13:53.048Z,5.54
2017-02-21T08:14:34.466Z,5.54
2017-02-21T08:15:14.935Z,5.5
2017-02-21T08:16:52.803Z,5.54
2017-02-21T08:17:33.182Z,5.5
2017-02-21T08:18:13.695Z,5.54
2017-02-21T08:18:54.126Z,5.44
2017-02-21T08:19:34.618Z,5.54
2017-02-21T08:20:15.390Z,5.5
2017-02-21T08:20:55.901Z,5.54
2017-02-21T08:21:36.397Z,5.46
2017-02-21T08:22:16.863Z,5.48
2017-02-21T08:22:57.562Z,5.46
2017-02-21T08:23:38.024Z,5.41
2017-02-21T08:24:18.520Z,5.44
2017-02-21T08:24:59.020Z,5.48
2017-02-21T08:25:39.499Z,5.46
2017-02-21T08:26:19.968Z,5.47
2017-02-21T08:27:00.471Z,5.39
2017-02-21T08:27:40.926Z,5.39
2017-02-21T08:28:21.397Z,5.43
2017-02-21T08:29:01.862Z,5.44
2017-02-21T08:29:42.339Z,5.48
2017-02-21T08:30:22.819Z,5.43
2017-02-21T08:31:03.342Z,5.47
2017-02-21T08:31:43.807Z,5.48
2017-02-21T08:32:24.303Z,5.5
2017-02-21T08:33:05.716Z,5.56
2017-02-21T08:33:46.193Z,5.53
2017-02-21T08:34:26.696Z,5.54
2017-02-21T08:35:07.165Z,5.44
2017-02-21T08:35:47.615Z,5.57
2017-02-21T08:36:28.120Z,5.48
2017-02-21T08:37:08.616Z,5.56
2017-02-21T08:37:49.082Z,5.53
2017-02-21T08:38:29.552Z,5.57
2017-02-21T08:39:10.018Z,5.51
2017-02-21T08:39:50.488Z,5.61
2017-02-21T08:40:31.012Z,5.48
2017-02-21T08:41:11.477Z,5.68
2017-02-21T08:41:55.492Z,5.65
2017-02-21T08:42:42.989Z,5.65
2017-02-21T08:43:31.306Z,5.73
2017-02-21T08:44:18.919Z,5.62
2017-02-21T08:44:59.281Z,5.57
2017-02-21T08:46:49.307Z,5.68
2017-02-21T08:47:29.912Z,5.69
2017-02-21T08:48:10.406Z,5.66
2017-02-21T08:48:50.898Z,5.69
2017-02-21T08:49:31.373Z,5.69
2017-02-21T08:50:11.859Z,5.8
2017-02-21T08:50:52.323Z,5.72
2017-02-21T08:51:32.812Z,5.75
2017-02-21T08:52:13.271Z,5.71
2017-02-21T08:52:53.757Z,5.72
2017-02-21T08:53:34.228Z,5.71
2017-02-21T08:54:14.722Z,5.8
2017-02-21T08:54:55.173Z,5.76
2017-02-21T08:55:35.655Z,5.8
2017-02-21T08:56:16.128Z,5.82
2017-02-21T08:56:56.688Z,5.86
2017-02-21T08:57:37.239Z,5.83
2017-02-21T08:58:17.710Z,5.76
2017-02-21T08:58:58.187Z,5.86
2017-02-21T08:59:38.703Z,5.82
2017-02-21T09:00:19.168Z,5.9
2017-02-21T09:00:59.974Z,5.87
2017-02-21T09:01:41.062Z,5.86
2017-02-21T09:02:22.075Z,5.82
2017-02-21T09:03:03.203Z,5.83
2017-02-21T09:03:43.677Z,5.82
2017-02-21T09:04:24.418Z,5.86
2017-02-21T09:05:04.970Z,5.83
2017-02-21T09:05:45.465Z,5.9
2017-02-21T09:06:26.007Z,5.84
2017-02-21T09:07:07.121Z,5.89
2017-02-21T09:07:47.673Z,5.82
2017-02-21T09:08:28.129Z,5.93
2017-02-21T09:09:08.580Z,5.91
2017-02-21T09:09:49.068Z,5.98
2017-02-21T09:10:29.575Z,5.97
2017-02-21T09:12:46.681Z,5.98
2017-02-21T09:13:34.260Z,5.9
2017-02-21T09:14:22.963Z,5.93
2017-02-21T09:15:10.883Z,5.93
2017-02-21T09:16:50.100Z,5.89
2017-02-21T09:17:33.482Z,5.89
2017-02-21T09:18:13.673Z,5.87
2017-02-21T09:18:54.192Z,5.93
2017-02-21T09:19:34.654Z,5.99
2017-02-21T09:20:15.150Z,6.01
2017-02-21T09:20:55.651Z,5.98
2017-02-21T09:21:36.130Z,6.04
2017-02-21T09:22:16.670Z,6.01
2017-02-21T09:22:57.133Z,6.09
2017-02-21T09:23:37.669Z,6.04
2017-02-21T09:24:18.130Z,6.07
2017-02-21T09:24:58.682Z,6.09
2017-02-21T09:25:39.186Z,6.05
2017-02-21T09:27:52.311Z,6.04
2017-02-21T09:28:32.805Z,6.04
2017-02-21T09:29:13.249Z,6.11
2017-02-21T09:29:53.800Z,6.22
2017-02-21T09:30:34.328Z,6.17
2017-02-21T09:31:14.805Z,6.24
2017-02-21T09:31:58.835Z,6.22
2017-02-21T09:32:40.128Z,6.09
2017-02-21T09:33:20.668Z,6.19
2017-02-21T09:34:01.146Z,6.28
2017-02-21T09:34:41.663Z,6.2
2017-02-21T09:35:22.143Z,6.24
2017-02-21T09:36:03.614Z,6.19
2017-02-21T09:36:44.114Z,6.26
2017-02-21T09:37:24.671Z,6.2
2017-02-21T09:38:06.040Z,6.24
2017-02-21T09:38:46.557Z,6.19
2017-02-21T09:39:27.035Z,6.26
2017-02-21T09:40:07.534Z,6.19
2017-02-21T09:40:47.989Z,6.26
2017-02-21T09:41:28.496Z,6.24
2017-02-21T09:42:08.995Z,6.26
2017-02-21T09:42:49.485Z,6.24
2017-02-21T09:43:30.039Z,6.22
2017-02-21T09:44:10.528Z,6.2
2017-02-21T09:44:51.025Z,6.2
2017-02-21T09:45:31.493Z,6.27
2017-02-21T09:46:11.988Z,6.2
2017-02-21T09:46:52.501Z,6.26
2017-02-21T09:47:32.999Z,6.26
2017-02-21T09:48:13.488Z,6.24
2017-02-21T09:48:53.997Z,6.17
2017-02-21T09:49:35.769Z,6.22
2017-02-21T09:51:39.008Z,6.2
2017-02-21T09:52:19.079Z,6.28
2017-02-21T09:52:59.553Z,6.26
2017-02-21T09:53:40.037Z,6.27
2017-02-21T09:54:20.530Z,6.27
2017-02-21T09:55:01.003Z,6.36
2017-02-21T09:55:41.481Z,6.26
2017-02-21T09:56:24.598Z,6.33
2017-02-21T09:57:06.996Z,6.3
2017-02-21T09:57:49.996Z,6.27
2017-02-21T09:58:32.675Z,6.33
2017-02-21T09:59:17.182Z,6.35
2017-02-21T10:00:02.088Z,6.35
2017-02-21T10:00:44.452Z,6.28
2017-02-21T10:01:31.107Z,6.33
2017-02-21T10:02:13.998Z,6.33
2017-02-21T10:02:55.999Z,6.31
2017-02-21T10:03:36.952Z,6.39
2017-02-21T10:04:17.443Z,6.41
2017-02-21T10:04:57.917Z,6.38
2017-02-21T10:05:39.262Z,6.45
2017-02-21T10:06:19.768Z,6.44
2017-02-21T10:07:00.321Z,6.33
2017-02-21T10:07:40.824Z,6.39
2017-02-21T10:08:21.309Z,6.36
2017-02-21T10:09:01.818Z,6.46
2017-02-21T10:09:42.348Z,6.45
2017-02-21T10:10:22.806Z,6.49
2017-02-21T10:11:03.779Z,6.45
2017-02-21T10:11:44.248Z,6.38
2017-02-21T10:12:24.937Z,6.41
2017-02-21T10:13:05.356Z,6.49
2017-02-21T10:13:45.891Z,6.45
2017-02-21T10:14:26.408Z,6.46
2017-02-21T10:15:06.912Z,6.49
2017-02-21T10:15:47.522Z,6.54
2017-02-21T10:16:28.213Z,6.54
2017-02-21T10:17:08.809Z,6.51
2017-02-21T10:17:49.260Z,6.51
2017-02-21T10:18:29.813Z,6.52
2017-02-21T10:19:10.292Z,6.57
2017-02-21T10:19:50.798Z,6.56
2017-02-21T10:20:31.296Z,6.54
2017-02-21T10:21:11.864Z,6.57
2017-02-21T10:21:52.489Z,6.54
2017-02-21T10:22:33.119Z,6.6
2017-02-21T10:23:13.695Z,6.54
2017-02-21T10:23:54.308Z,6.59
2017-02-21T10:24:36.305Z,6.59
2017-02-21T10:25:23.715Z,6.54
2017-02-21T10:26:04.160Z,6.59
2017-02-21T10:26:44.738Z,6.66
2017-02-21T10:27:25.247Z,6.59
2017-02-21T10:28:15.267Z,6.59
2017-02-21T16:06:41.313Z,5.25
2017-02-21T16:07:26.467Z,5.3
2017-02-21T16:08:15.034Z,5.3
2017-02-21T16:09:02.998Z,5.28
2017-02-21T16:11:00.014Z,5.25
2017-02-21T16:11:44.981Z,5.23
2017-02-21T16:12:33.226Z,5.26
2017-02-21T16:13:19.297Z,5.29
2017-02-21T16:13:59.852Z,5.15
2017-02-21T16:14:41.110Z,5.17
2017-02-21T16:15:21.623Z,5.14
2017-02-21T16:16:02.738Z,5.12
2017-02-21T16:16:46.704Z,5.14
2017-02-21T16:17:31.572Z,5.02
2017-02-21T16:18:12.674Z,5.05
2017-02-21T16:18:53.976Z,5.11
2017-02-21T16:19:35.170Z,5.1
2017-02-21T16:20:20.587Z,4.96
2017-02-21T16:21:03.643Z,4.97
2017-02-21T16:21:45.577Z,4.96
2017-02-21T16:22:26.075Z,4.97
2017-02-21T16:23:06.594Z,4.96
2017-02-21T16:23:47.110Z,4.94
2017-02-21T16:24:27.598Z,4.97
2017-02-21T16:25:08.823Z,4.93
2017-02-21T16:25:50.184Z,4.93
2017-02-21T16:26:30.678Z,4.86
2017-02-21T16:27:11.203Z,4.92
2017-02-21T16:27:52.664Z,4.86
2017-02-21T16:28:34.749Z,4.86
2017-02-21T16:29:19.129Z,4.93
2017-02-21T16:30:03.176Z,4.92
2017-02-21T16:30:49.077Z,4.89
2017-02-21T16:31:30.314Z,4.89
2017-02-21T16:32:10.827Z,4.89
2017-02-21T16:32:54.761Z,4.84
2017-02-21T16:33:39.580Z,4.78
2017-02-21T16:34:21.676Z,4.77
2017-02-21T16:35:05.676Z,4.82
2017-02-21T16:35:47.577Z,4.74
2017-02-21T16:38:05.668Z,4.84
2017-02-21T16:38:52.061Z,4.8
2017-02-21T16:39:40.722Z,4.82
2017-02-21T16:40:29.167Z,4.77
2017-02-21T16:42:25.220Z,4.71
2017-02-21T16:43:11.356Z,4.73
2017-02-21T16:43:59.751Z,4.71
2017-02-21T16:45:51.750Z,4.63
2017-02-21T16:46:40.461Z,4.71
2017-02-21T16:47:28.434Z,4.63
2017-02-21T16:48:14.800Z,4.77
2017-02-21T16:49:03.673Z,4.71
2017-02-21T16:51:09.233Z,4.6
2017-02-21T16:53:45.852Z,4.6
2017-02-21T16:54:29.054Z,4.52
2017-02-21T16:55:17.742Z,4.55
2017-02-21T16:56:05.408Z,4.53
2017-02-21T16:56:55.379Z,4.49
2017-02-21T16:57:46.993Z,4.53
2017-02-21T16:58:37.050Z,4.56
2017-02-21T16:59:27.654Z,4.44
2017-02-21T17:00:16.255Z,4.49
2017-02-21T17:00:56.710Z,4.53
2017-02-21T17:01:37.218Z,4.55
2017-02-21T17:02:17.760Z,4.58
2017-02-21T17:02:58.280Z,4.48
2017-02-21T17:03:38.751Z,4.48
2017-02-21T17:04:19.220Z,4.48
2017-02-21T17:04:59.729Z,4.44
2017-02-21T17:05:40.239Z,4.5
2017-02-21T17:06:20.746Z,4.48
2017-02-21T17:07:01.207Z,4.5
2017-02-21T17:07:41.739Z,4.48
2017-02-21T17:08:22.925Z,4.45
2017-02-21T17:09:03.456Z,4.49
2017-02-21T17:09:43.948Z,4.5
2017-02-21T17:10:24.425Z,4.49
2017-02-21T17:11:04.975Z,4.48
2017-02-21T17:11:45.457Z,4.52
2017-02-21T17:12:25.952Z,4.5
2017-02-21T17:13:06.459Z,4.4
2017-02-21T17:13:46.993Z,4.48
2017-02-21T17:14:27.482Z,4.45
2017-02-21T17:15:08.021Z,4.45
2017-02-21T17:15:49.381Z,4.5
2017-02-21T17:16:29.910Z,4.52
2017-02-21T17:17:10.421Z,4.5
2017-02-21T17:17:50.899Z,4.49
2017-02-21T17:18:31.385Z,4.48
2017-02-21T17:19:11.866Z,4.48
2017-02-21T17:19:52.393Z,4.48
2017-02-21T17:20:32.843Z,4.49
2017-02-21T17:21:13.333Z,4.5
2017-02-21T17:21:53.832Z,4.48
2017-02-21T17:22:34.340Z,4.48
2017-02-21T17:23:14.859Z,4.44
2017-02-21T17:23:55.340Z,4.5
2017-02-21T17:24:35.860Z,4.45
2017-02-21T17:25:16.321Z,4.48
2017-02-21T17:25:57.320Z,4.45
2017-02-21T17:26:37.797Z,4.48
2017-02-21T17:27:18.284Z,4.49
2017-02-21T17:27:58.820Z,4.48
2017-02-21T17:28:39.389Z,4.45
2017-02-21T17:29:19.855Z,4.49
2017-02-21T17:30:00.360Z,4.49
2017-02-21T17:30:40.836Z,4.53
2017-02-21T17:31:21.922Z,4.49
2017-02-21T17:32:02.422Z,4.44
2017-02-21T17:32:42.892Z,4.44
2017-02-21T17:33:23.515Z,4.44
2017-02-21T17:34:03.924Z,4.4
2017-02-21T17:34:44.421Z,4.42
2017-02-21T17:35:24.926Z,4.4
2017-02-21T17:36:05.437Z,4.38
2017-02-21T17:36:45.951Z,4.37
2017-02-21T17:37:26.444Z,4.4
2017-02-21T17:38:06.946Z,4.34
2017-02-21T17:38:47.463Z,4.37
2017-02-21T17:39:27.964Z,4.41
2017-02-21T17:40:08.486Z,4.4
2017-02-21T17:40:49.017Z,4.34
2017-02-21T17:41:29.512Z,4.32
2017-02-21T17:42:10.030Z,4.32
2017-02-21T17:42:50.493Z,4.37